Atlantic - Newfoundland: Past 24 Hour Conditions

 

North Cape

05:00 PM AST 25 November 2014
This table is a summary of hourly weather conditions for the past 24 hours.
Date / Time
(AST)
Wind(knots) Conditions Visibility(km) Pressure(kPa) Air tempC) Relative humidity(%) Dew pointC)
25 November 2014
17:00 WNW 13 N/A N/A 100.6 6 81 3
16:00 WSW 14 N/A N/A 100.5 8 79 4
15:00 WSW 17 N/A N/A 100.3 8 81 5
14:00 WSW 16 N/A N/A 100.3 8 84 6
13:00 SW 22 N/A N/A 100.2 10 80 7
12:00 SW 22 N/A N/A 100.2 11 79 7
11:00 SW 20 gust 26 N/A N/A 100.1 12 83 9
10:00 SW 20 gust 27 N/A N/A 100.1 12 83 9
9:00 SW 19 gust 24 N/A N/A 100.1 12 83 9
8:00 SW 20 gust 27 N/A N/A 100.0 12 85 10
7:00 SW 22 gust 28 N/A N/A 99.9 11 86 9
6:00 SW 25 gust 30 N/A N/A 99.9 12 87 10
5:00 SW 20 gust 25 N/A N/A 99.9 11 90 10
4:00 SW 19 gust 24 N/A N/A 99.9 12 90 11
3:00 SW 17 gust 24 N/A N/A 99.9 10 93 9
2:00 SW 19 N/A N/A 99.8 11 89 10
1:00 SW 20 gust 26 N/A N/A 99.8 13 88 11
0:00 SSW 15 gust 20 N/A N/A 99.8 14 94 13
24 November 2014
23:00 S 10 gust 21 N/A N/A 99.9 14 94 13
22:00 S 13 gust 20 N/A N/A 100.0 12 97 11
21:00 SSE 14 gust 20 N/A N/A 100.1 8 96 8
20:00 SSE 17 gust 23 N/A N/A 100.2 8 96 8
19:00 SSE 17 gust 23 N/A N/A 100.4 7 96 6
18:00 SSE 18 N/A N/A 100.6 6 94 5
17:00 SE 22 gust 28 N/A N/A 100.9 5 92 4
 
Map of Atlantic - Newfoundland marine weather areas Southwestern Grand Banks - 44138 Banquereau - 44139 Tail of the Bank - 44140 Nickerson Bank - 44251 Northeast Burgeo Bank - 44255 Blanc-Sablon Airport Cap Whittle Chevery Natashquan Airport Heath Point Miscou Island Grand Étang Ingonish Beach North Mountain St.Paul Island J.A. Douglas McCurdy Sydney Airport Charlottetown Airport East Point North Cape Argentia Bonavista Burgeo Cape Race Corner Brook Daniel's Harbour Englee Ferolle Point La Scie Port aux Basques Rocky Harbour Sagona Island St. Anthony Airport St. John's Int'l Airport St. Lawrence Stephenville Airport Twillingate Winterland Wreckhouse Cartwright Airport Mary's Harbour Grates Cove Pool's Island Marticot Island Long Pond Îles de la Madeleine Airport
Legend: buoyBuoy land stationLand Station